createdAt,value
2022-10-19T00:00:03.201Z,20.90
2022-10-19T00:02:33.861Z,21.10
2022-10-19T00:05:04.021Z,21.30
2022-10-19T00:07:34.502Z,21.40
2022-10-19T00:10:05.375Z,21.60
2022-10-19T00:12:35.818Z,21.80
2022-10-19T00:15:06.720Z,21.80
2022-10-19T00:17:38.750Z,21.80
2022-10-19T00:20:10.898Z,21.90
2022-10-19T00:22:41.141Z,21.90
2022-10-19T00:25:11.703Z,22.00
2022-10-19T00:27:41.958Z,22.20
2022-10-19T00:30:12.805Z,22.30
2022-10-19T00:32:43.030Z,22.50
2022-10-19T00:35:13.223Z,22.60
2022-10-19T00:37:43.892Z,22.70
2022-10-19T00:40:14.795Z,22.80
2022-10-19T00:42:45.465Z,22.80
2022-10-19T00:45:20.270Z,22.90
2022-10-19T00:47:51.751Z,23.10
2022-10-19T00:50:22.082Z,23.30
2022-10-19T00:52:52.583Z,23.40
2022-10-19T00:55:23.047Z,23.50
2022-10-19T00:57:53.342Z,23.50
2022-10-19T01:00:23.691Z,23.40
2022-10-19T01:02:53.934Z,23.50
2022-10-19T01:05:24.688Z,23.50
2022-10-19T01:07:55.968Z,23.60
2022-10-19T01:10:43.638Z,23.60
2022-10-19T01:13:56.296Z,23.60
2022-10-19T01:16:40.416Z,23.70
2022-10-19T01:19:39.123Z,23.80
2022-10-19T01:22:29.202Z,23.80
2022-10-19T01:25:17.675Z,23.90
2022-10-19T01:28:03.470Z,23.90
2022-10-19T01:31:15.508Z,23.80
2022-10-19T01:34:19.310Z,23.50
2022-10-19T01:37:21.755Z,23.10
2022-10-19T01:40:24.324Z,22.90
2022-10-19T01:43:26.032Z,22.90
2022-10-19T01:46:09.261Z,22.90
2022-10-19T01:48:43.599Z,23.00
2022-10-19T01:51:25.301Z,23.00
2022-10-19T01:54:00.995Z,22.90
2022-10-19T01:56:33.629Z,22.80
2022-10-19T01:59:10.414Z,22.70
2022-10-19T02:01:46.108Z,22.60
2022-10-19T02:04:21.731Z,22.50
2022-10-19T02:06:55.305Z,22.50
2022-10-19T02:09:25.903Z,22.40
2022-10-19T02:12:02.438Z,22.30
2022-10-19T02:14:34.994Z,22.30
2022-10-19T02:17:27.732Z,22.30
2022-10-19T02:19:58.927Z,22.30
2022-10-19T02:22:30.630Z,22.20
2022-10-19T02:25:01.303Z,22.30
2022-10-19T02:27:31.948Z,22.40
2022-10-19T02:30:03.790Z,22.40
2022-10-19T02:32:36.175Z,22.50
2022-10-19T02:35:08.527Z,22.80
2022-10-19T02:37:40.597Z,22.90
2022-10-19T02:40:13.887Z,23.10
2022-10-19T02:42:56.322Z,23.20
2022-10-19T02:45:38.717Z,23.20
2022-10-19T02:48:20.919Z,23.20
2022-10-19T02:50:51.671Z,23.10
2022-10-19T02:53:22.620Z,23.10
2022-10-19T02:55:55.386Z,23.10
2022-10-19T02:58:26.010Z,23.00
2022-10-19T03:00:57.278Z,23.00
2022-10-19T03:03:27.512Z,22.80
2022-10-19T03:05:58.935Z,22.80
2022-10-19T03:08:29.110Z,22.70
2022-10-19T03:11:01.729Z,22.70
2022-10-19T03:13:32.290Z,22.60
2022-10-19T03:16:12.659Z,22.50
2022-10-19T03:18:42.988Z,22.40
2022-10-19T03:21:16.521Z,22.40
2022-10-19T03:23:46.848Z,22.40
2022-10-19T03:26:19.708Z,22.40
2022-10-19T03:28:51.309Z,22.40
2022-10-19T03:31:23.608Z,22.50
2022-10-19T03:33:53.802Z,22.70
2022-10-19T03:36:25.965Z,22.70
2022-10-19T03:38:59.183Z,22.70
2022-10-19T03:41:34.474Z,22.80
2022-10-19T03:44:07.520Z,22.80
2022-10-19T03:46:38.901Z,22.80
2022-10-19T03:49:11.340Z,22.80
2022-10-19T03:51:43.478Z,23.00
2022-10-19T03:54:20.665Z,23.30
2022-10-19T03:56:54.447Z,23.40
2022-10-19T03:59:26.407Z,23.50
2022-10-19T04:01:57.481Z,23.60
2022-10-19T04:04:29.632Z,23.50
2022-10-19T04:07:00.352Z,23.60
2022-10-19T04:09:30.909Z,23.60
2022-10-19T04:12:03.074Z,23.60
2022-10-19T04:14:52.518Z,23.60
2022-10-19T04:17:24.720Z,23.60
2022-10-19T04:19:55.318Z,23.70
2022-10-19T04:22:27.491Z,23.80
2022-10-19T04:24:59.026Z,23.80
2022-10-19T04:27:29.718Z,23.80
2022-10-19T04:30:01.849Z,23.60
2022-10-19T04:32:32.413Z,23.40
2022-10-19T04:35:04.602Z,23.20
2022-10-19T04:37:36.848Z,23.10
2022-10-19T04:40:14.157Z,23.00
2022-10-19T04:42:46.603Z,23.00
2022-10-19T04:45:17.173Z,22.90
2022-10-19T04:47:49.040Z,22.90
2022-10-19T04:50:20.889Z,22.80
2022-10-19T04:52:52.734Z,22.70
2022-10-19T04:55:23.734Z,22.60
2022-10-19T04:57:54.308Z,22.60
2022-10-19T05:00:24.968Z,22.60
2022-10-19T05:02:55.634Z,22.60
2022-10-19T05:05:27.660Z,22.70
2022-10-19T05:08:00.226Z,22.60
2022-10-19T05:10:32.375Z,22.60
2022-10-19T05:13:04.715Z,22.50
2022-10-19T05:15:37.181Z,22.40
2022-10-19T05:18:07.801Z,22.50
2022-10-19T05:20:40.471Z,22.40
2022-10-19T05:23:12.075Z,22.40
2022-10-19T05:25:42.674Z,22.40
2022-10-19T05:28:13.463Z,22.40
2022-10-19T05:30:48.840Z,22.30
2022-10-19T05:33:19.672Z,22.30
2022-10-19T05:35:50.234Z,22.20
2022-10-19T05:38:20.477Z,22.20
2022-10-19T05:40:53.684Z,22.10
2022-10-19T05:43:24.936Z,22.00
2022-10-19T05:45:56.504Z,22.00
2022-10-19T05:48:27.986Z,22.00
2022-10-19T05:51:00.178Z,21.90
2022-10-19T05:53:33.158Z,21.80
2022-10-19T05:56:03.846Z,21.70
2022-10-19T05:58:35.607Z,21.60
2022-10-19T06:01:08.464Z,21.50
2022-10-19T06:03:40.129Z,21.40
2022-10-19T06:06:12.122Z,21.30
2022-10-19T06:08:43.240Z,21.30
2022-10-19T06:25:18.112Z,21.20
2022-10-19T06:31:21.211Z,21.20
2022-10-19T06:33:54.840Z,21.30
2022-10-19T06:36:29.186Z,21.30
2022-10-19T06:39:02.700Z,21.30
2022-10-19T06:41:35.688Z,21.20
2022-10-19T06:44:06.309Z,21.20
2022-10-19T06:46:37.038Z,21.10
2022-10-19T06:49:07.677Z,21.10
2022-10-19T06:51:39.541Z,21.00
2022-10-19T06:54:10.526Z,20.90
2022-10-19T06:56:41.214Z,20.80
2022-10-19T06:59:12.223Z,20.80
2022-10-19T07:01:43.875Z,20.70
2022-10-19T07:04:14.881Z,20.60
2022-10-19T07:06:46.970Z,20.50
2022-10-19T07:09:17.955Z,20.40
2022-10-19T07:11:49.844Z,20.40
2022-10-19T07:14:20.603Z,20.30
2022-10-19T07:16:54.482Z,20.30
2022-10-19T07:19:32.266Z,20.30
2022-10-19T07:22:04.091Z,20.20
2022-10-19T07:24:36.348Z,20.20
2022-10-19T07:27:09.067Z,20.10
2022-10-19T07:29:40.609Z,20.10
2022-10-19T07:32:11.492Z,20.00
2022-10-19T07:34:43.052Z,19.90
2022-10-19T07:37:14.675Z,19.80
2022-10-19T07:39:45.301Z,19.80
2022-10-19T07:42:15.887Z,19.70
2022-10-19T07:44:46.524Z,19.60
2022-10-19T07:47:17.084Z,19.60
2022-10-19T07:49:48.533Z,19.60
2022-10-19T07:52:19.090Z,19.50
2022-10-19T07:54:51.639Z,19.40
2022-10-19T07:57:24.325Z,19.30
2022-10-19T07:59:56.180Z,19.20
2022-10-19T08:02:30.904Z,19.20
2022-10-19T08:05:12.893Z,19.10
2022-10-19T08:07:45.327Z,19.00
2022-10-19T08:10:17.214Z,18.90
2022-10-19T08:12:47.834Z,18.90
2022-10-19T08:15:19.343Z,18.80
2022-10-19T08:17:50.905Z,18.70
2022-10-19T08:20:23.488Z,18.60
2022-10-19T08:22:58.883Z,18.50
2022-10-19T08:25:30.734Z,18.40
2022-10-19T08:28:03.201Z,18.30
2022-10-19T08:30:37.877Z,18.20
2022-10-19T08:33:10.358Z,18.20
2022-10-19T08:35:42.031Z,18.20
2022-10-19T08:38:13.805Z,18.10
2022-10-19T08:40:48.474Z,18.10
2022-10-19T08:43:25.847Z,18.00
2022-10-19T08:46:20.428Z,17.90
2022-10-19T08:48:52.631Z,17.80
2022-10-19T08:51:23.852Z,17.80
2022-10-19T08:54:00.064Z,17.70
2022-10-19T08:56:50.357Z,17.60
2022-10-19T08:59:25.908Z,17.60
2022-10-19T09:02:14.430Z,17.60
2022-10-19T09:05:04.028Z,17.50
2022-10-19T09:07:47.574Z,17.50
2022-10-19T09:10:26.546Z,17.50
2022-10-19T09:13:12.197Z,17.50
2022-10-19T09:15:47.255Z,17.40
2022-10-19T09:18:32.792Z,17.40
2022-10-19T09:21:17.031Z,17.30
2022-10-19T09:23:57.518Z,17.30
2022-10-19T09:26:32.936Z,17.20
2022-10-19T09:29:18.005Z,17.20
2022-10-19T09:34:45.406Z,17.20
2022-10-19T09:37:24.753Z,17.10
2022-10-19T09:39:59.142Z,17.10
2022-10-19T09:42:38.880Z,17.10
2022-10-19T09:45:28.656Z,17.00
2022-10-19T09:48:08.658Z,17.00
2022-10-19T09:50:46.959Z,16.90
2022-10-19T09:53:24.964Z,16.80
2022-10-19T09:56:10.379Z,16.80
2022-10-19T09:58:54.987Z,16.70
2022-10-19T10:04:33.851Z,16.70
2022-10-19T10:07:06.333Z,16.70
2022-10-19T10:09:43.201Z,16.70
2022-10-19T10:12:17.158Z,16.60
2022-10-19T10:14:48.436Z,16.60
2022-10-19T10:17:25.132Z,16.60
2022-10-19T10:20:07.165Z,16.50
2022-10-19T10:22:42.172Z,16.50
2022-10-19T10:25:22.779Z,16.50
2022-10-19T10:28:03.011Z,16.50
2022-10-19T10:30:39.953Z,16.50
2022-10-19T10:33:26.926Z,16.40
2022-10-19T10:36:12.218Z,16.40
2022-10-19T10:38:54.112Z,16.40
2022-10-19T10:41:26.325Z,16.40
2022-10-19T10:44:08.893Z,16.40
2022-10-19T10:47:00.844Z,16.30
2022-10-19T10:49:44.575Z,16.20
2022-10-19T10:52:19.998Z,16.10
2022-10-19T10:55:13.500Z,16.00
2022-10-19T10:57:53.979Z,16.00
2022-10-19T11:00:30.180Z,16.00
2022-10-19T11:03:24.435Z,16.00
2022-10-19T11:06:04.776Z,16.00
2022-10-19T11:08:58.971Z,16.00
2022-10-19T11:11:36.690Z,15.90
2022-10-19T11:14:25.340Z,15.90
2022-10-19T11:17:02.531Z,15.80
2022-10-19T11:19:37.380Z,15.80
2022-10-19T11:22:31.014Z,15.80
2022-10-19T11:25:08.825Z,15.70
2022-10-19T11:28:04.854Z,15.70
2022-10-19T11:30:50.734Z,15.70
2022-10-19T11:33:34.513Z,15.60
2022-10-19T11:36:28.667Z,15.60
2022-10-19T11:39:36.033Z,15.60
2022-10-19T11:42:24.683Z,15.60
2022-10-19T11:45:01.379Z,15.60
2022-10-19T11:47:39.531Z,15.60
2022-10-19T11:50:32.361Z,15.60
2022-10-19T11:53:16.665Z,15.60
2022-10-19T11:55:52.232Z,15.70
2022-10-19T12:02:08.624Z,15.80
2022-10-19T12:05:07.104Z,15.80
2022-10-19T12:07:47.671Z,15.80
2022-10-19T12:11:00.215Z,15.80
2022-10-19T12:13:45.743Z,15.80
2022-10-19T12:16:18.531Z,15.80
2022-10-19T12:19:02.966Z,15.90
2022-10-19T12:21:46.112Z,15.90
2022-10-19T12:24:23.019Z,16.00
2022-10-19T12:26:56.439Z,16.00
2022-10-19T12:29:39.984Z,16.00
2022-10-19T12:32:15.146Z,16.00
2022-10-19T12:35:05.412Z,16.00
2022-10-19T12:37:48.405Z,16.00
2022-10-19T12:40:31.473Z,16.00
2022-10-19T12:43:58.276Z,16.00
2022-10-19T12:46:53.826Z,16.00
2022-10-19T12:49:48.766Z,16.00
2022-10-19T12:52:47.281Z,16.00
2022-10-19T12:55:40.314Z,16.00
2022-10-19T12:58:55.559Z,16.00
2022-10-19T13:01:46.958Z,15.90
2022-10-19T13:04:39.920Z,15.80
2022-10-19T13:07:13.798Z,15.80
2022-10-19T13:09:51.369Z,15.70
2022-10-19T13:12:26.586Z,15.70
2022-10-19T13:14:59.762Z,15.70
2022-10-19T13:17:53.085Z,15.60
2022-10-19T13:20:26.856Z,15.60
2022-10-19T13:23:06.592Z,15.60
2022-10-19T13:25:44.509Z,15.50
2022-10-19T13:28:17.029Z,15.50
2022-10-19T13:30:47.567Z,15.50
2022-10-19T13:33:27.444Z,15.50
2022-10-19T13:36:04.519Z,15.40
2022-10-19T13:38:55.241Z,15.40
2022-10-19T13:41:41.291Z,15.40
2022-10-19T13:44:27.170Z,15.40
2022-10-19T13:47:24.987Z,15.40
2022-10-19T13:50:17.680Z,15.40
2022-10-19T13:53:07.501Z,15.40
2022-10-19T13:55:53.282Z,15.40
2022-10-19T13:58:42.021Z,15.30
2022-10-19T14:01:24.734Z,15.30
2022-10-19T14:04:08.263Z,15.30
2022-10-19T14:06:42.904Z,15.30
2022-10-19T14:09:34.998Z,15.30
2022-10-19T14:12:30.918Z,15.30
2022-10-19T14:15:03.110Z,15.30
2022-10-19T14:17:44.826Z,15.30
2022-10-19T14:20:38.552Z,15.30
2022-10-19T14:23:24.909Z,15.40
2022-10-19T14:26:24.181Z,15.40
2022-10-19T14:29:04.048Z,15.40
2022-10-19T14:31:43.749Z,15.40
2022-10-19T14:34:18.314Z,15.40
2022-10-19T14:36:51.217Z,15.50
2022-10-19T14:39:35.356Z,15.50
2022-10-19T14:42:12.149Z,15.50
2022-10-19T14:44:45.391Z,15.50
2022-10-19T14:47:33.172Z,15.40
2022-10-19T14:50:04.669Z,15.40
2022-10-19T14:52:41.209Z,15.40
2022-10-19T14:55:17.963Z,15.40
2022-10-19T14:57:51.873Z,15.40
2022-10-19T15:03:00.004Z,15.30
2022-10-19T15:05:35.437Z,15.30
2022-10-19T15:08:34.383Z,15.30
2022-10-19T15:11:05.176Z,15.20
2022-10-19T15:13:42.842Z,15.20
2022-10-19T15:16:36.206Z,15.10
2022-10-19T15:19:17.462Z,15.00
2022-10-19T15:21:51.447Z,15.00
2022-10-19T15:24:29.889Z,15.00
2022-10-19T15:27:09.016Z,14.90
2022-10-19T15:29:41.538Z,14.90
2022-10-19T15:32:22.873Z,15.00
2022-10-19T15:34:55.805Z,14.90
2022-10-19T15:37:28.437Z,14.90
2022-10-19T15:39:58.722Z,14.90
2022-10-19T15:42:51.757Z,15.00
2022-10-19T15:45:35.727Z,15.00
2022-10-19T15:48:18.302Z,15.00
2022-10-19T15:50:51.608Z,15.00
2022-10-19T15:53:23.916Z,14.90
2022-10-19T15:55:54.607Z,15.00
2022-10-19T15:58:24.902Z,14.90
2022-10-19T16:00:55.502Z,15.00
2022-10-19T16:03:25.663Z,14.90
2022-10-19T16:05:56.449Z,15.00
2022-10-19T16:08:27.064Z,14.90
2022-10-19T16:10:57.955Z,14.90
2022-10-19T16:13:28.580Z,14.90
2022-10-19T16:16:11.395Z,14.90
2022-10-19T16:18:42.002Z,15.00
2022-10-19T16:21:12.688Z,15.00
2022-10-19T16:23:42.999Z,15.00
2022-10-19T16:26:18.226Z,14.90
2022-10-19T16:28:50.247Z,15.00
2022-10-19T16:31:21.483Z,14.90
2022-10-19T16:33:52.156Z,14.90
2022-10-19T16:36:22.983Z,14.90
2022-10-19T16:38:53.283Z,14.90
2022-10-19T16:41:24.479Z,14.90
2022-10-19T16:43:59.489Z,14.90
2022-10-19T16:46:30.603Z,14.90
2022-10-19T16:49:01.264Z,14.80
2022-10-19T16:51:42.723Z,14.80
2022-10-19T16:54:14.419Z,14.80
2022-10-19T16:56:50.022Z,14.80
2022-10-19T16:59:22.036Z,14.80
2022-10-19T17:01:53.973Z,14.70
2022-10-19T17:04:24.457Z,14.80
2022-10-19T17:06:54.935Z,14.70
2022-10-19T17:09:42.875Z,14.80
2022-10-19T17:12:14.944Z,14.80
2022-10-19T17:14:45.508Z,14.80
2022-10-19T17:17:15.728Z,14.70
2022-10-19T17:19:45.969Z,14.70
2022-10-19T17:22:16.277Z,14.80
2022-10-19T17:24:48.285Z,14.80
2022-10-19T17:27:19.055Z,14.80
2022-10-19T17:29:49.974Z,14.80
2022-10-19T17:32:20.413Z,14.80
2022-10-19T17:34:50.632Z,14.90
2022-10-19T17:37:20.997Z,14.90
2022-10-19T17:39:53.651Z,14.90
2022-10-19T17:42:24.321Z,14.80
2022-10-19T17:44:56.866Z,14.80
2022-10-19T17:47:27.839Z,14.80
2022-10-19T17:49:59.593Z,14.80
2022-10-19T17:52:30.487Z,14.80
2022-10-19T17:55:17.984Z,14.80
2022-10-19T17:57:50.487Z,14.80
2022-10-19T18:00:21.173Z,14.80
2022-10-19T18:02:51.555Z,14.70
2022-10-19T18:05:21.856Z,14.70
2022-10-19T18:07:53.020Z,14.70
2022-10-19T18:10:24.309Z,14.70
2022-10-19T18:12:54.725Z,14.70
2022-10-19T18:15:25.154Z,14.70
2022-10-19T18:17:55.500Z,14.70
2022-10-19T18:20:25.645Z,14.70
2022-10-19T18:22:56.072Z,14.70
2022-10-19T18:25:49.202Z,14.70
2022-10-19T18:28:16.515Z,14.70
2022-10-19T18:30:47.488Z,14.70
2022-10-19T18:33:18.235Z,14.70
2022-10-19T18:35:49.752Z,14.70
2022-10-19T18:38:20.388Z,14.70
2022-10-19T18:40:52.031Z,14.70
2022-10-19T18:43:24.631Z,14.70
2022-10-19T18:45:56.779Z,14.70
2022-10-19T18:48:28.622Z,14.70
2022-10-19T18:51:01.059Z,14.70
2022-10-19T18:53:32.987Z,14.70
2022-10-19T18:56:05.984Z,14.70
2022-10-19T18:58:38.770Z,14.70
2022-10-19T19:01:12.343Z,14.70
2022-10-19T19:03:49.331Z,14.70
2022-10-19T19:06:26.339Z,14.70
2022-10-19T19:09:02.242Z,14.60
2022-10-19T19:11:39.672Z,14.60
2022-10-19T19:14:24.186Z,14.60
2022-10-19T19:16:54.416Z,14.50
2022-10-19T19:19:27.412Z,14.60
2022-10-19T19:21:58.949Z,14.50
2022-10-19T19:24:33.930Z,14.50
2022-10-19T19:27:06.761Z,14.50
2022-10-19T19:29:38.279Z,14.50
2022-10-19T19:32:08.649Z,14.50
2022-10-19T19:34:39.225Z,14.50
2022-10-19T19:37:11.222Z,14.50
2022-10-19T19:39:42.619Z,14.50
2022-10-19T19:42:12.793Z,14.50
2022-10-19T19:44:44.171Z,14.50
2022-10-19T19:47:15.433Z,14.50
2022-10-19T19:49:46.203Z,14.50
2022-10-19T19:52:17.837Z,14.50
2022-10-19T19:54:48.053Z,14.40
2022-10-19T19:57:18.769Z,14.40
2022-10-19T19:59:49.148Z,14.40
2022-10-19T20:02:19.816Z,14.40
2022-10-19T20:04:50.035Z,14.50
2022-10-19T20:07:22.230Z,14.50
2022-10-19T20:09:55.983Z,14.50
2022-10-19T20:12:28.269Z,14.50
2022-10-19T20:14:58.876Z,14.60
2022-10-19T20:17:29.560Z,14.60
2022-10-19T20:20:00.153Z,14.60
2022-10-19T20:22:30.375Z,14.60
2022-10-19T20:25:00.905Z,14.60
2022-10-19T20:27:31.407Z,14.60
2022-10-19T20:30:01.552Z,14.60
2022-10-19T20:32:32.811Z,14.60
2022-10-19T20:35:05.957Z,14.70
2022-10-19T20:37:37.153Z,14.70
2022-10-19T20:40:11.020Z,14.80
2022-10-19T20:42:42.065Z,14.80
2022-10-19T20:45:14.736Z,14.80
2022-10-19T20:47:44.898Z,14.80
2022-10-19T20:50:17.070Z,14.80
2022-10-19T20:52:50.923Z,14.80
2022-10-19T20:55:23.649Z,14.90
2022-10-19T20:57:53.770Z,14.90
2022-10-19T21:00:23.929Z,15.00
2022-10-19T21:02:55.210Z,15.10
2022-10-19T21:05:25.352Z,15.20
2022-10-19T21:07:55.893Z,15.30
2022-10-19T21:10:26.128Z,15.50
2022-10-19T21:12:56.328Z,15.60
2022-10-19T21:15:27.859Z,15.80
2022-10-19T21:17:58.427Z,15.90
2022-10-19T21:20:32.567Z,16.00
2022-10-19T21:23:03.270Z,16.10
2022-10-19T21:25:35.455Z,16.10
2022-10-19T21:28:06.925Z,16.20
2022-10-19T21:30:38.907Z,16.30
2022-10-19T21:33:09.356Z,16.50
2022-10-19T21:35:39.819Z,16.70
2022-10-19T21:38:11.566Z,16.80
2022-10-19T21:40:42.394Z,17.00
2022-10-19T21:43:13.073Z,17.10
2022-10-19T21:45:43.291Z,17.20
2022-10-19T21:48:14.208Z,17.30
2022-10-19T21:50:45.075Z,17.30
2022-10-19T21:53:15.720Z,17.50
2022-10-19T21:55:46.545Z,17.70
2022-10-19T21:58:17.509Z,18.00
2022-10-19T22:00:49.068Z,18.20
2022-10-19T22:03:21.205Z,18.40
2022-10-19T22:05:55.243Z,18.60
2022-10-19T22:08:26.198Z,18.80
2022-10-19T22:10:56.506Z,18.90
2022-10-19T22:13:27.134Z,19.00
2022-10-19T22:15:57.705Z,19.10
2022-10-19T22:18:28.268Z,19.20
2022-10-19T22:21:22.673Z,19.30
2022-10-19T22:24:04.761Z,19.40
2022-10-19T22:26:47.723Z,19.30
2022-10-19T22:29:17.927Z,19.10
2022-10-19T22:31:48.322Z,18.90
2022-10-19T22:34:20.749Z,18.50
2022-10-19T22:36:51.318Z,18.40
2022-10-19T22:39:22.653Z,18.30
2022-10-19T22:42:50.020Z,18.40
2022-10-19T22:45:38.995Z,18.50
2022-10-19T22:48:54.289Z,18.80
2022-10-19T22:52:01.025Z,19.10
2022-10-19T22:54:31.960Z,19.40
2022-10-19T22:57:02.247Z,19.60
2022-10-19T22:59:35.424Z,19.50
2022-10-19T23:02:06.080Z,19.40
2022-10-19T23:04:36.495Z,19.10
2022-10-19T23:09:42.565Z,19.00
2022-10-19T23:12:13.162Z,19.00
2022-10-19T23:14:44.065Z,19.00
2022-10-19T23:17:14.736Z,19.10
2022-10-19T23:19:45.854Z,19.30
2022-10-19T23:22:16.196Z,19.50
2022-10-19T23:24:46.343Z,19.50
2022-10-19T23:27:17.103Z,19.50
2022-10-19T23:29:47.746Z,19.50
2022-10-19T23:32:17.920Z,19.40
2022-10-19T23:34:50.361Z,19.40
2022-10-19T23:37:21.253Z,19.30
2022-10-19T23:39:51.892Z,19.20
2022-10-19T23:42:22.770Z,19.10
2022-10-19T23:44:54.944Z,19.10
2022-10-19T23:47:25.203Z,19.00
2022-10-19T23:49:55.519Z,18.90
2022-10-19T23:52:25.710Z,18.90
2022-10-19T23:54:55.833Z,18.80
2022-10-19T23:57:25.997Z,18.70
2022-10-19T23:59:56.169Z,18.60
